sensor_id;sensor_type;location;lat;lon;timestamp;P1;durP1;ratioP1;P2;durP2;ratioP2
3000;SDS011;1510;51.072;6.678;2024-03-08T00:00:15;32.50;;;20.33;;
3000;SDS011;1510;51.072;6.678;2024-03-08T00:02:43;31.90;;;21.60;;
3000;SDS011;1510;51.072;6.678;2024-03-08T00:05:11;29.10;;;19.90;;
3000;SDS011;1510;51.072;6.678;2024-03-08T00:07:39;29.27;;;19.70;;
3000;SDS011;1510;51.072;6.678;2024-03-08T00:10:08;29.23;;;17.90;;
3000;SDS011;1510;51.072;6.678;2024-03-08T00:12:37;29.60;;;18.57;;
3000;SDS011;1510;51.072;6.678;2024-03-08T00:15:04;26.73;;;19.50;;
3000;SDS011;1510;51.072;6.678;2024-03-08T00:17:32;27.17;;;18.03;;
3000;SDS011;1510;51.072;6.678;2024-03-08T00:19:59;29.50;;;19.67;;
3000;SDS011;1510;51.072;6.678;2024-03-08T00:22:25;27.83;;;19.37;;
3000;SDS011;1510;51.072;6.678;2024-03-08T00:24:52;31.83;;;20.63;;
3000;SDS011;1510;51.072;6.678;2024-03-08T00:27:20;29.47;;;22.47;;
3000;SDS011;1510;51.072;6.678;2024-03-08T00:29:47;31.60;;;20.27;;
3000;SDS011;1510;51.072;6.678;2024-03-08T00:32:14;25.70;;;18.57;;
3000;SDS011;1510;51.072;6.678;2024-03-08T00:34:42;29.47;;;19.40;;
3000;SDS011;1510;51.072;6.678;2024-03-08T00:37:08;28.10;;;17.90;;
3000;SDS011;1510;51.072;6.678;2024-03-08T00:39:35;29.23;;;19.47;;
3000;SDS011;1510;51.072;6.678;2024-03-08T00:42:02;26.53;;;19.60;;
3000;SDS011;1510;51.072;6.678;2024-03-08T00:44:30;31.57;;;20.43;;
3000;SDS011;1510;51.072;6.678;2024-03-08T00:46:57;31.20;;;20.90;;
3000;SDS011;1510;51.072;6.678;2024-03-08T00:49:24;29.17;;;20.17;;
3000;SDS011;1510;51.072;6.678;2024-03-08T00:51:51;30.30;;;19.13;;
3000;SDS011;1510;51.072;6.678;2024-03-08T00:54:17;35.57;;;21.93;;
3000;SDS011;1510;51.072;6.678;2024-03-08T00:56:44;35.47;;;21.90;;
3000;SDS011;1510;51.072;6.678;2024-03-08T00:59:11;32.43;;;20.10;;
3000;SDS011;1510;51.072;6.678;2024-03-08T01:01:40;31.50;;;20.90;;
3000;SDS011;1510;51.072;6.678;2024-03-08T01:04:09;33.17;;;22.07;;
3000;SDS011;1510;51.072;6.678;2024-03-08T01:06:36;40.67;;;21.33;;
3000;SDS011;1510;51.072;6.678;2024-03-08T01:09:03;34.20;;;20.47;;
3000;SDS011;1510;51.072;6.678;2024-03-08T01:11:32;36.80;;;21.27;;
3000;SDS011;1510;51.072;6.678;2024-03-08T01:13:58;31.87;;;20.47;;
3000;SDS011;1510;51.072;6.678;2024-03-08T01:16:26;36.83;;;21.10;;
3000;SDS011;1510;51.072;6.678;2024-03-08T01:18:54;30.20;;;20.23;;
3000;SDS011;1510;51.072;6.678;2024-03-08T01:21:21;32.00;;;22.30;;
3000;SDS011;1510;51.072;6.678;2024-03-08T01:23:48;34.43;;;20.27;;
3000;SDS011;1510;51.072;6.678;2024-03-08T01:26:14;30.60;;;20.83;;
3000;SDS011;1510;51.072;6.678;2024-03-08T01:28:41;39.67;;;25.43;;
3000;SDS011;1510;51.072;6.678;2024-03-08T01:31:08;33.30;;;21.53;;
3000;SDS011;1510;51.072;6.678;2024-03-08T01:33:35;35.40;;;22.50;;
3000;SDS011;1510;51.072;6.678;2024-03-08T01:36:03;33.10;;;19.80;;
3000;SDS011;1510;51.072;6.678;2024-03-08T01:38:31;42.20;;;24.03;;
3000;SDS011;1510;51.072;6.678;2024-03-08T01:40:58;39.20;;;22.70;;
3000;SDS011;1510;51.072;6.678;2024-03-08T01:43:26;35.50;;;20.87;;
3000;SDS011;1510;51.072;6.678;2024-03-08T01:45:54;36.57;;;22.87;;
3000;SDS011;1510;51.072;6.678;2024-03-08T01:48:23;28.17;;;19.00;;
3000;SDS011;1510;51.072;6.678;2024-03-08T01:50:50;35.37;;;22.70;;
3000;SDS011;1510;51.072;6.678;2024-03-08T01:53:21;32.83;;;20.87;;
3000;SDS011;1510;51.072;6.678;2024-03-08T01:55:48;36.67;;;21.97;;
3000;SDS011;1510;51.072;6.678;2024-03-08T01:58:15;38.27;;;21.90;;
3000;SDS011;1510;51.072;6.678;2024-03-08T02:00:45;38.73;;;22.07;;
3000;SDS011;1510;51.072;6.678;2024-03-08T02:03:14;37.57;;;22.50;;
3000;SDS011;1510;51.072;6.678;2024-03-08T02:05:41;38.33;;;21.57;;
3000;SDS011;1510;51.072;6.678;2024-03-08T02:08:08;35.87;;;23.20;;
3000;SDS011;1510;51.072;6.678;2024-03-08T02:10:41;36.57;;;21.03;;
3000;SDS011;1510;51.072;6.678;2024-03-08T02:13:08;42.53;;;21.20;;
3000;SDS011;1510;51.072;6.678;2024-03-08T02:15:51;42.97;;;22.13;;
3000;SDS011;1510;51.072;6.678;2024-03-08T02:18:18;34.47;;;20.20;;
3000;SDS011;1510;51.072;6.678;2024-03-08T02:20:47;39.27;;;24.53;;
3000;SDS011;1510;51.072;6.678;2024-03-08T02:23:14;37.97;;;23.17;;
3000;SDS011;1510;51.072;6.678;2024-03-08T02:25:40;40.30;;;21.97;;
3000;SDS011;1510;51.072;6.678;2024-03-08T02:28:08;32.57;;;21.03;;
3000;SDS011;1510;51.072;6.678;2024-03-08T02:30:36;37.77;;;22.73;;
3000;SDS011;1510;51.072;6.678;2024-03-08T02:33:03;37.07;;;22.53;;
3000;SDS011;1510;51.072;6.678;2024-03-08T02:35:30;33.90;;;23.07;;
3000;SDS011;1510;51.072;6.678;2024-03-08T02:37:58;34.17;;;22.90;;
3000;SDS011;1510;51.072;6.678;2024-03-08T02:40:25;37.70;;;22.63;;
3000;SDS011;1510;51.072;6.678;2024-03-08T02:42:52;36.23;;;23.30;;
3000;SDS011;1510;51.072;6.678;2024-03-08T02:45:19;33.70;;;22.93;;
3000;SDS011;1510;51.072;6.678;2024-03-08T02:47:46;33.27;;;21.03;;
3000;SDS011;1510;51.072;6.678;2024-03-08T02:50:14;39.50;;;23.03;;
3000;SDS011;1510;51.072;6.678;2024-03-08T02:52:41;34.83;;;21.17;;
3000;SDS011;1510;51.072;6.678;2024-03-08T02:55:10;38.23;;;23.33;;
3000;SDS011;1510;51.072;6.678;2024-03-08T02:57:40;35.63;;;21.70;;
3000;SDS011;1510;51.072;6.678;2024-03-08T03:00:07;33.40;;;21.03;;
3000;SDS011;1510;51.072;6.678;2024-03-08T03:02:35;35.90;;;23.00;;
3000;SDS011;1510;51.072;6.678;2024-03-08T03:05:02;39.80;;;23.60;;
3000;SDS011;1510;51.072;6.678;2024-03-08T03:07:31;36.53;;;23.73;;
3000;SDS011;1510;51.072;6.678;2024-03-08T03:09:58;41.10;;;23.73;;
3000;SDS011;1510;51.072;6.678;2024-03-08T03:12:27;37.93;;;22.87;;
3000;SDS011;1510;51.072;6.678;2024-03-08T03:14:54;38.47;;;24.50;;
3000;SDS011;1510;51.072;6.678;2024-03-08T03:17:21;37.80;;;23.47;;
3000;SDS011;1510;51.072;6.678;2024-03-08T03:19:49;49.43;;;27.30;;
3000;SDS011;1510;51.072;6.678;2024-03-08T03:22:16;49.50;;;28.80;;
3000;SDS011;1510;51.072;6.678;2024-03-08T03:24:43;48.95;;;36.55;;
3000;SDS011;1510;51.072;6.678;2024-03-08T03:27:11;55.63;;;49.73;;
3000;SDS011;1510;51.072;6.678;2024-03-08T03:29:39;52.00;;;47.27;;
3000;SDS011;1510;51.072;6.678;2024-03-08T03:32:07;52.63;;;47.50;;
3000;SDS011;1510;51.072;6.678;2024-03-08T03:34:34;49.13;;;43.77;;
3000;SDS011;1510;51.072;6.678;2024-03-08T03:37:02;46.13;;;38.07;;
3000;SDS011;1510;51.072;6.678;2024-03-08T03:39:29;50.00;;;35.47;;
3000;SDS011;1510;51.072;6.678;2024-03-08T03:41:56;47.10;;;30.77;;
3000;SDS011;1510;51.072;6.678;2024-03-08T03:44:23;40.13;;;30.57;;
3000;SDS011;1510;51.072;6.678;2024-03-08T03:46:51;44.13;;;27.67;;
3000;SDS011;1510;51.072;6.678;2024-03-08T03:49:18;40.40;;;28.10;;
3000;SDS011;1510;51.072;6.678;2024-03-08T03:51:45;49.80;;;34.20;;
3000;SDS011;1510;51.072;6.678;2024-03-08T03:54:12;43.10;;;30.23;;
3000;SDS011;1510;51.072;6.678;2024-03-08T03:56:39;46.40;;;31.57;;
3000;SDS011;1510;51.072;6.678;2024-03-08T03:59:06;44.97;;;35.73;;
3000;SDS011;1510;51.072;6.678;2024-03-08T04:01:33;41.23;;;32.70;;
3000;SDS011;1510;51.072;6.678;2024-03-08T04:04:01;45.10;;;33.47;;
3000;SDS011;1510;51.072;6.678;2024-03-08T04:06:28;49.70;;;35.57;;
3000;SDS011;1510;51.072;6.678;2024-03-08T04:08:55;42.53;;;37.40;;
3000;SDS011;1510;51.072;6.678;2024-03-08T04:11:22;50.53;;;45.10;;
3000;SDS011;1510;51.072;6.678;2024-03-08T04:13:48;52.27;;;46.70;;
3000;SDS011;1510;51.072;6.678;2024-03-08T04:16:15;67.57;;;61.63;;
3000;SDS011;1510;51.072;6.678;2024-03-08T04:18:44;84.07;;;77.57;;
3000;SDS011;1510;51.072;6.678;2024-03-08T04:21:12;129.80;;;121.37;;
3000;SDS011;1510;51.072;6.678;2024-03-08T04:23:39;154.20;;;145.40;;
3000;SDS011;1510;51.072;6.678;2024-03-08T04:26:05;178.40;;;168.50;;
3000;SDS011;1510;51.072;6.678;2024-03-08T04:28:34;229.90;;;218.90;;
3000;SDS011;1510;51.072;6.678;2024-03-08T04:31:02;187.77;;;177.97;;
3000;SDS011;1510;51.072;6.678;2024-03-08T04:33:29;157.33;;;148.47;;
3000;SDS011;1510;51.072;6.678;2024-03-08T04:35:56;136.70;;;128.67;;
3000;SDS011;1510;51.072;6.678;2024-03-08T04:38:24;115.30;;;108.00;;
3000;SDS011;1510;51.072;6.678;2024-03-08T04:40:51;114.63;;;106.03;;
3000;SDS011;1510;51.072;6.678;2024-03-08T04:43:18;123.00;;;115.43;;
3000;SDS011;1510;51.072;6.678;2024-03-08T04:45:45;109.37;;;101.80;;
3000;SDS011;1510;51.072;6.678;2024-03-08T04:48:13;80.27;;;74.20;;
3000;SDS011;1510;51.072;6.678;2024-03-08T04:50:40;59.87;;;54.70;;
3000;SDS011;1510;51.072;6.678;2024-03-08T04:53:07;54.87;;;49.07;;
3000;SDS011;1510;51.072;6.678;2024-03-08T04:55:35;56.97;;;43.63;;
3000;SDS011;1510;51.072;6.678;2024-03-08T04:58:02;51.25;;;46.05;;
3000;SDS011;1510;51.072;6.678;2024-03-08T05:00:30;57.80;;;52.57;;
3000;SDS011;1510;51.072;6.678;2024-03-08T05:02:57;69.00;;;63.23;;
3000;SDS011;1510;51.072;6.678;2024-03-08T05:05:24;79.40;;;73.50;;
3000;SDS011;1510;51.072;6.678;2024-03-08T05:07:53;103.03;;;96.40;;
3000;SDS011;1510;51.072;6.678;2024-03-08T05:10:20;121.90;;;113.73;;
3000;SDS011;1510;51.072;6.678;2024-03-08T05:12:48;119.83;;;112.23;;
3000;SDS011;1510;51.072;6.678;2024-03-08T05:15:15;120.03;;;111.93;;
3000;SDS011;1510;51.072;6.678;2024-03-08T05:17:42;161.73;;;153.23;;
3000;SDS011;1510;51.072;6.678;2024-03-08T05:20:10;205.63;;;195.23;;
3000;SDS011;1510;51.072;6.678;2024-03-08T05:22:38;229.80;;;218.33;;
3000;SDS011;1510;51.072;6.678;2024-03-08T05:25:06;240.13;;;228.77;;
3000;SDS011;1510;51.072;6.678;2024-03-08T05:27:34;281.37;;;268.57;;
3000;SDS011;1510;51.072;6.678;2024-03-08T05:30:02;262.30;;;250.40;;
3000;SDS011;1510;51.072;6.678;2024-03-08T05:32:30;295.33;;;281.87;;
3000;SDS011;1510;51.072;6.678;2024-03-08T05:34:57;296.47;;;282.90;;
3000;SDS011;1510;51.072;6.678;2024-03-08T05:37:24;272.47;;;260.67;;
3000;SDS011;1510;51.072;6.678;2024-03-08T05:39:51;271.80;;;259.60;;
3000;SDS011;1510;51.072;6.678;2024-03-08T05:42:19;240.97;;;229.93;;
3000;SDS011;1510;51.072;6.678;2024-03-08T05:44:46;244.50;;;232.50;;
3000;SDS011;1510;51.072;6.678;2024-03-08T05:47:14;256.70;;;244.37;;
3000;SDS011;1510;51.072;6.678;2024-03-08T05:49:41;256.50;;;245.17;;
3000;SDS011;1510;51.072;6.678;2024-03-08T05:52:09;228.67;;;217.40;;
3000;SDS011;1510;51.072;6.678;2024-03-08T05:54:36;249.57;;;238.37;;
3000;SDS011;1510;51.072;6.678;2024-03-08T05:57:03;246.57;;;235.03;;
3000;SDS011;1510;51.072;6.678;2024-03-08T05:59:30;280.97;;;268.07;;
3000;SDS011;1510;51.072;6.678;2024-03-08T06:01:56;285.50;;;272.23;;
3000;SDS011;1510;51.072;6.678;2024-03-08T06:04:25;282.27;;;269.17;;
3000;SDS011;1510;51.072;6.678;2024-03-08T06:06:52;273.40;;;260.83;;
3000;SDS011;1510;51.072;6.678;2024-03-08T06:09:21;306.37;;;292.33;;
3000;SDS011;1510;51.072;6.678;2024-03-08T06:11:49;335.53;;;320.37;;
3000;SDS011;1510;51.072;6.678;2024-03-08T06:14:16;344.40;;;328.80;;
3000;SDS011;1510;51.072;6.678;2024-03-08T06:16:44;358.30;;;341.37;;
3000;SDS011;1510;51.072;6.678;2024-03-08T06:19:10;371.40;;;354.10;;
3000;SDS011;1510;51.072;6.678;2024-03-08T06:21:39;363.50;;;346.58;;
3000;SDS011;1510;51.072;6.678;2024-03-08T06:24:06;358.23;;;341.67;;
3000;SDS011;1510;51.072;6.678;2024-03-08T06:26:33;369.17;;;351.70;;
3000;SDS011;1510;51.072;6.678;2024-03-08T06:29:01;369.70;;;352.90;;
3000;SDS011;1510;51.072;6.678;2024-03-08T06:31:27;372.47;;;354.80;;
3000;SDS011;1510;51.072;6.678;2024-03-08T06:33:54;345.30;;;329.33;;
3000;SDS011;1510;51.072;6.678;2024-03-08T06:36:21;348.57;;;332.67;;
3000;SDS011;1510;51.072;6.678;2024-03-08T06:38:49;324.80;;;309.47;;
3000;SDS011;1510;51.072;6.678;2024-03-08T06:41:17;314.30;;;299.67;;
3000;SDS011;1510;51.072;6.678;2024-03-08T06:43:44;300.17;;;286.67;;
3000;SDS011;1510;51.072;6.678;2024-03-08T06:46:11;289.37;;;275.90;;
3000;SDS011;1510;51.072;6.678;2024-03-08T06:48:38;279.40;;;266.87;;
3000;SDS011;1510;51.072;6.678;2024-03-08T06:51:05;258.63;;;246.00;;
3000;SDS011;1510;51.072;6.678;2024-03-08T06:53:32;238.10;;;226.77;;
3000;SDS011;1510;51.072;6.678;2024-03-08T06:56:01;230.17;;;218.90;;
3000;SDS011;1510;51.072;6.678;2024-03-08T06:58:28;204.47;;;194.33;;
3000;SDS011;1510;51.072;6.678;2024-03-08T07:00:55;185.50;;;175.07;;
3000;SDS011;1510;51.072;6.678;2024-03-08T07:03:25;155.37;;;147.57;;
3000;SDS011;1510;51.072;6.678;2024-03-08T07:05:54;145.10;;;136.40;;
3000;SDS011;1510;51.072;6.678;2024-03-08T07:08:21;139.47;;;129.70;;
3000;SDS011;1510;51.072;6.678;2024-03-08T07:10:48;121.77;;;113.63;;
3000;SDS011;1510;51.072;6.678;2024-03-08T07:13:16;104.40;;;97.13;;
3000;SDS011;1510;51.072;6.678;2024-03-08T07:15:43;93.97;;;86.93;;
3000;SDS011;1510;51.072;6.678;2024-03-08T07:18:11;86.50;;;80.17;;
3000;SDS011;1510;51.072;6.678;2024-03-08T07:20:39;78.60;;;71.43;;
3000;SDS011;1510;51.072;6.678;2024-03-08T07:23:07;69.63;;;63.13;;
3000;SDS011;1510;51.072;6.678;2024-03-08T07:25:35;57.70;;;52.00;;
3000;SDS011;1510;51.072;6.678;2024-03-08T07:28:04;55.50;;;43.70;;
3000;SDS011;1510;51.072;6.678;2024-03-08T07:30:33;44.60;;;36.13;;
3000;SDS011;1510;51.072;6.678;2024-03-08T07:33:20;43.27;;;29.60;;
3000;SDS011;1510;51.072;6.678;2024-03-08T07:35:47;53.77;;;29.13;;
3000;SDS011;1510;51.072;6.678;2024-03-08T07:38:15;40.67;;;25.40;;
3000;SDS011;1510;51.072;6.678;2024-03-08T07:40:42;40.50;;;24.20;;
3000;SDS011;1510;51.072;6.678;2024-03-08T07:43:10;44.90;;;25.37;;
3000;SDS011;1510;51.072;6.678;2024-03-08T07:45:38;35.80;;;23.10;;
3000;SDS011;1510;51.072;6.678;2024-03-08T07:48:06;44.70;;;24.50;;
3000;SDS011;1510;51.072;6.678;2024-03-08T07:50:34;38.10;;;23.17;;
3000;SDS011;1510;51.072;6.678;2024-03-08T07:53:02;43.70;;;21.50;;
3000;SDS011;1510;51.072;6.678;2024-03-08T07:55:31;41.57;;;23.27;;
3000;SDS011;1510;51.072;6.678;2024-03-08T07:57:58;35.40;;;20.30;;
3000;SDS011;1510;51.072;6.678;2024-03-08T08:00:25;41.67;;;23.10;;
3000;SDS011;1510;51.072;6.678;2024-03-08T08:02:53;49.00;;;25.17;;
3000;SDS011;1510;51.072;6.678;2024-03-08T08:05:21;48.03;;;23.50;;
3000;SDS011;1510;51.072;6.678;2024-03-08T08:07:47;33.33;;;22.33;;
3000;SDS011;1510;51.072;6.678;2024-03-08T08:10:15;42.73;;;24.70;;
3000;SDS011;1510;51.072;6.678;2024-03-08T08:12:43;38.23;;;21.47;;
3000;SDS011;1510;51.072;6.678;2024-03-08T08:15:11;36.50;;;20.87;;
3000;SDS011;1510;51.072;6.678;2024-03-08T08:17:40;37.00;;;21.53;;
3000;SDS011;1510;51.072;6.678;2024-03-08T08:20:09;39.70;;;22.80;;
3000;SDS011;1510;51.072;6.678;2024-03-08T08:22:37;38.50;;;20.83;;
3000;SDS011;1510;51.072;6.678;2024-03-08T08:25:05;32.20;;;20.77;;
3000;SDS011;1510;51.072;6.678;2024-03-08T08:27:32;40.63;;;20.63;;
3000;SDS011;1510;51.072;6.678;2024-03-08T08:29:59;36.80;;;23.40;;
3000;SDS011;1510;51.072;6.678;2024-03-08T08:32:26;33.37;;;20.30;;
3000;SDS011;1510;51.072;6.678;2024-03-08T08:34:52;36.33;;;20.20;;
3000;SDS011;1510;51.072;6.678;2024-03-08T08:37:21;34.07;;;20.90;;
3000;SDS011;1510;51.072;6.678;2024-03-08T08:39:48;30.03;;;18.90;;
3000;SDS011;1510;51.072;6.678;2024-03-08T08:42:16;36.83;;;20.93;;
3000;SDS011;1510;51.072;6.678;2024-03-08T08:44:43;38.57;;;19.63;;
3000;SDS011;1510;51.072;6.678;2024-03-08T08:47:11;30.37;;;19.10;;
3000;SDS011;1510;51.072;6.678;2024-03-08T08:49:38;35.97;;;22.60;;
3000;SDS011;1510;51.072;6.678;2024-03-08T08:52:05;37.33;;;20.90;;
3000;SDS011;1510;51.072;6.678;2024-03-08T08:54:33;33.53;;;19.50;;
3000;SDS011;1510;51.072;6.678;2024-03-08T08:57:01;37.63;;;19.10;;
3000;SDS011;1510;51.072;6.678;2024-03-08T08:59:32;31.20;;;19.93;;
3000;SDS011;1510;51.072;6.678;2024-03-08T09:02:00;33.87;;;19.77;;
3000;SDS011;1510;51.072;6.678;2024-03-08T09:04:28;27.30;;;17.60;;
3000;SDS011;1510;51.072;6.678;2024-03-08T09:06:55;30.63;;;17.67;;
3000;SDS011;1510;51.072;6.678;2024-03-08T09:09:22;27.23;;;18.40;;
3000;SDS011;1510;51.072;6.678;2024-03-08T09:11:51;28.37;;;17.40;;
3000;SDS011;1510;51.072;6.678;2024-03-08T09:14:19;30.47;;;17.30;;
3000;SDS011;1510;51.072;6.678;2024-03-08T09:16:46;32.43;;;19.20;;
3000;SDS011;1510;51.072;6.678;2024-03-08T09:19:13;24.60;;;16.57;;
3000;SDS011;1510;51.072;6.678;2024-03-08T09:21:40;30.83;;;19.43;;
3000;SDS011;1510;51.072;6.678;2024-03-08T09:24:07;25.40;;;16.10;;
3000;SDS011;1510;51.072;6.678;2024-03-08T09:26:34;23.70;;;15.93;;
3000;SDS011;1510;51.072;6.678;2024-03-08T09:29:02;24.90;;;15.83;;
3000;SDS011;1510;51.072;6.678;2024-03-08T09:31:30;24.67;;;16.80;;
3000;SDS011;1510;51.072;6.678;2024-03-08T09:33:56;26.07;;;15.77;;
3000;SDS011;1510;51.072;6.678;2024-03-08T09:36:23;25.20;;;15.60;;
3000;SDS011;1510;51.072;6.678;2024-03-08T09:38:50;27.00;;;17.57;;
3000;SDS011;1510;51.072;6.678;2024-03-08T09:41:18;28.80;;;17.00;;
3000;SDS011;1510;51.072;6.678;2024-03-08T09:43:45;27.63;;;17.77;;
3000;SDS011;1510;51.072;6.678;2024-03-08T09:46:13;22.40;;;15.20;;
3000;SDS011;1510;51.072;6.678;2024-03-08T09:48:41;23.87;;;16.23;;
3000;SDS011;1510;51.072;6.678;2024-03-08T09:51:08;25.33;;;16.00;;
3000;SDS011;1510;51.072;6.678;2024-03-08T09:53:38;28.60;;;16.73;;
3000;SDS011;1510;51.072;6.678;2024-03-08T09:56:06;25.37;;;16.17;;
3000;SDS011;1510;51.072;6.678;2024-03-08T09:58:33;25.00;;;15.43;;
3000;SDS011;1510;51.072;6.678;2024-03-08T10:01:18;23.57;;;16.17;;
3000;SDS011;1510;51.072;6.678;2024-03-08T10:03:46;22.63;;;15.40;;
3000;SDS011;1510;51.072;6.678;2024-03-08T10:06:14;22.80;;;16.77;;
3000;SDS011;1510;51.072;6.678;2024-03-08T10:08:41;25.60;;;15.90;;
3000;SDS011;1510;51.072;6.678;2024-03-08T10:11:07;23.17;;;15.90;;
3000;SDS011;1510;51.072;6.678;2024-03-08T10:13:36;23.80;;;15.40;;
3000;SDS011;1510;51.072;6.678;2024-03-08T10:16:05;23.37;;;15.13;;
3000;SDS011;1510;51.072;6.678;2024-03-08T10:18:34;24.80;;;15.50;;
3000;SDS011;1510;51.072;6.678;2024-03-08T10:21:04;22.73;;;14.33;;
3000;SDS011;1510;51.072;6.678;2024-03-08T10:23:32;21.00;;;14.33;;
3000;SDS011;1510;51.072;6.678;2024-03-08T10:26:09;25.63;;;15.70;;
3000;SDS011;1510;51.072;6.678;2024-03-08T10:28:40;24.87;;;15.90;;
3000;SDS011;1510;51.072;6.678;2024-03-08T10:31:07;20.13;;;14.60;;
3000;SDS011;1510;51.072;6.678;2024-03-08T10:33:36;25.87;;;15.87;;
3000;SDS011;1510;51.072;6.678;2024-03-08T10:36:05;22.67;;;14.33;;
3000;SDS011;1510;51.072;6.678;2024-03-08T10:38:33;20.80;;;14.23;;
3000;SDS011;1510;51.072;6.678;2024-03-08T10:41:02;21.90;;;13.90;;
3000;SDS011;1510;51.072;6.678;2024-03-08T10:43:31;21.27;;;11.90;;
3000;SDS011;1510;51.072;6.678;2024-03-08T10:46:20;21.40;;;14.80;;
3000;SDS011;1510;51.072;6.678;2024-03-08T10:48:56;18.73;;;13.40;;
3000;SDS011;1510;51.072;6.678;2024-03-08T10:51:24;24.33;;;14.50;;
3000;SDS011;1510;51.072;6.678;2024-03-08T10:53:52;19.13;;;13.80;;
3000;SDS011;1510;51.072;6.678;2024-03-08T10:56:20;17.57;;;12.57;;
3000;SDS011;1510;51.072;6.678;2024-03-08T10:58:47;22.47;;;12.20;;
3000;SDS011;1510;51.072;6.678;2024-03-08T11:01:15;20.37;;;11.30;;
3000;SDS011;1510;51.072;6.678;2024-03-08T11:03:43;22.00;;;12.90;;
3000;SDS011;1510;51.072;6.678;2024-03-08T11:06:14;19.07;;;12.87;;
3000;SDS011;1510;51.072;6.678;2024-03-08T11:08:43;18.40;;;12.40;;
3000;SDS011;1510;51.072;6.678;2024-03-08T11:11:26;18.30;;;12.57;;
3000;SDS011;1510;51.072;6.678;2024-03-08T11:13:55;16.20;;;10.80;;
3000;SDS011;1510;51.072;6.678;2024-03-08T11:16:38;16.80;;;11.23;;
3000;SDS011;1510;51.072;6.678;2024-03-08T11:19:24;14.87;;;10.40;;
3000;SDS011;1510;51.072;6.678;2024-03-08T11:22:01;16.30;;;10.43;;
3000;SDS011;1510;51.072;6.678;2024-03-08T11:24:36;13.77;;;9.70;;
3000;SDS011;1510;51.072;6.678;2024-03-08T11:27:05;15.97;;;9.73;;
3000;SDS011;1510;51.072;6.678;2024-03-08T11:29:35;15.07;;;10.27;;
3000;SDS011;1510;51.072;6.678;2024-03-08T11:32:04;16.60;;;11.00;;
3000;SDS011;1510;51.072;6.678;2024-03-08T11:34:34;16.67;;;10.60;;
3000;SDS011;1510;51.072;6.678;2024-03-08T11:37:04;17.63;;;10.90;;
3000;SDS011;1510;51.072;6.678;2024-03-08T11:39:34;19.20;;;10.33;;
3000;SDS011;1510;51.072;6.678;2024-03-08T11:42:03;14.30;;;10.13;;
3000;SDS011;1510;51.072;6.678;2024-03-08T11:44:30;18.53;;;9.20;;
3000;SDS011;1510;51.072;6.678;2024-03-08T11:46:57;20.07;;;10.57;;
3000;SDS011;1510;51.072;6.678;2024-03-08T11:49:24;15.97;;;9.97;;
3000;SDS011;1510;51.072;6.678;2024-03-08T11:51:51;18.60;;;10.83;;
3000;SDS011;1510;51.072;6.678;2024-03-08T11:54:20;14.80;;;9.97;;
3000;SDS011;1510;51.072;6.678;2024-03-08T11:56:47;14.40;;;9.70;;
3000;SDS011;1510;51.072;6.678;2024-03-08T11:59:17;16.97;;;10.67;;
3000;SDS011;1510;51.072;6.678;2024-03-08T12:01:44;15.90;;;10.40;;
3000;SDS011;1510;51.072;6.678;2024-03-08T12:04:26;17.70;;;10.97;;
3000;SDS011;1510;51.072;6.678;2024-03-08T12:06:53;17.70;;;11.53;;
3000;SDS011;1510;51.072;6.678;2024-03-08T12:09:21;16.40;;;10.27;;
3000;SDS011;1510;51.072;6.678;2024-03-08T12:11:48;15.13;;;10.17;;
3000;SDS011;1510;51.072;6.678;2024-03-08T12:14:16;15.87;;;10.97;;
3000;SDS011;1510;51.072;6.678;2024-03-08T12:16:42;16.97;;;10.20;;
3000;SDS011;1510;51.072;6.678;2024-03-08T12:19:09;15.90;;;11.03;;
3000;SDS011;1510;51.072;6.678;2024-03-08T12:21:37;15.73;;;10.83;;
3000;SDS011;1510;51.072;6.678;2024-03-08T12:24:11;15.33;;;9.77;;
3000;SDS011;1510;51.072;6.678;2024-03-08T12:26:43;17.73;;;11.17;;
3000;SDS011;1510;51.072;6.678;2024-03-08T12:29:16;17.70;;;12.53;;
3000;SDS011;1510;51.072;6.678;2024-03-08T12:31:45;16.63;;;10.63;;
3000;SDS011;1510;51.072;6.678;2024-03-08T12:34:12;16.17;;;10.80;;
3000;SDS011;1510;51.072;6.678;2024-03-08T12:36:44;14.80;;;10.03;;
3000;SDS011;1510;51.072;6.678;2024-03-08T12:39:12;15.20;;;10.73;;
3000;SDS011;1510;51.072;6.678;2024-03-08T12:41:41;13.70;;;10.10;;
3000;SDS011;1510;51.072;6.678;2024-03-08T12:44:09;18.00;;;9.80;;
3000;SDS011;1510;51.072;6.678;2024-03-08T12:46:37;15.83;;;10.47;;
3000;SDS011;1510;51.072;6.678;2024-03-08T12:49:08;16.93;;;10.83;;
3000;SDS011;1510;51.072;6.678;2024-03-08T12:51:37;16.63;;;11.35;;
3000;SDS011;1510;51.072;6.678;2024-03-08T12:54:04;15.23;;;10.50;;
3000;SDS011;1510;51.072;6.678;2024-03-08T12:56:33;17.57;;;10.93;;
3000;SDS011;1510;51.072;6.678;2024-03-08T12:59:03;15.27;;;9.90;;
3000;SDS011;1510;51.072;6.678;2024-03-08T13:01:31;15.73;;;10.30;;
3000;SDS011;1510;51.072;6.678;2024-03-08T13:03:58;15.53;;;10.27;;
3000;SDS011;1510;51.072;6.678;2024-03-08T13:06:25;15.47;;;10.90;;
3000;SDS011;1510;51.072;6.678;2024-03-08T13:08:53;17.90;;;11.00;;
3000;SDS011;1510;51.072;6.678;2024-03-08T13:11:21;15.47;;;11.40;;
3000;SDS011;1510;51.072;6.678;2024-03-08T13:13:48;18.40;;;10.50;;
3000;SDS011;1510;51.072;6.678;2024-03-08T13:16:17;19.87;;;10.77;;
3000;SDS011;1510;51.072;6.678;2024-03-08T13:18:44;17.20;;;11.30;;
3000;SDS011;1510;51.072;6.678;2024-03-08T13:21:13;16.17;;;10.60;;
3000;SDS011;1510;51.072;6.678;2024-03-08T13:23:44;19.53;;;11.00;;
3000;SDS011;1510;51.072;6.678;2024-03-08T13:26:14;15.90;;;10.80;;
3000;SDS011;1510;51.072;6.678;2024-03-08T13:28:42;16.33;;;10.70;;
3000;SDS011;1510;51.072;6.678;2024-03-08T13:31:09;15.43;;;10.30;;
3000;SDS011;1510;51.072;6.678;2024-03-08T13:33:37;13.77;;;9.40;;
3000;SDS011;1510;51.072;6.678;2024-03-08T13:36:06;14.80;;;9.80;;
3000;SDS011;1510;51.072;6.678;2024-03-08T13:38:40;15.83;;;10.57;;
3000;SDS011;1510;51.072;6.678;2024-03-08T13:41:08;16.07;;;11.57;;
3000;SDS011;1510;51.072;6.678;2024-03-08T13:43:35;15.30;;;10.30;;
3000;SDS011;1510;51.072;6.678;2024-03-08T13:46:02;14.77;;;10.20;;
3000;SDS011;1510;51.072;6.678;2024-03-08T13:48:29;18.13;;;10.77;;
3000;SDS011;1510;51.072;6.678;2024-03-08T13:50:57;16.87;;;10.77;;
3000;SDS011;1510;51.072;6.678;2024-03-08T13:53:25;14.60;;;9.03;;
3000;SDS011;1510;51.072;6.678;2024-03-08T13:55:52;16.60;;;10.57;;
3000;SDS011;1510;51.072;6.678;2024-03-08T13:58:19;17.58;;;10.57;;
3000;SDS011;1510;51.072;6.678;2024-03-08T14:00:46;16.57;;;10.43;;
3000;SDS011;1510;51.072;6.678;2024-03-08T14:03:12;16.80;;;10.30;;
3000;SDS011;1510;51.072;6.678;2024-03-08T14:05:39;17.17;;;8.57;;
3000;SDS011;1510;51.072;6.678;2024-03-08T14:08:09;16.03;;;10.83;;
3000;SDS011;1510;51.072;6.678;2024-03-08T14:10:37;17.77;;;9.60;;
3000;SDS011;1510;51.072;6.678;2024-03-08T14:13:04;18.07;;;10.67;;
3000;SDS011;1510;51.072;6.678;2024-03-08T14:15:32;14.77;;;9.57;;
3000;SDS011;1510;51.072;6.678;2024-03-08T14:17:59;16.17;;;9.70;;
3000;SDS011;1510;51.072;6.678;2024-03-08T14:20:27;14.40;;;10.00;;
3000;SDS011;1510;51.072;6.678;2024-03-08T14:22:54;17.57;;;10.07;;
3000;SDS011;1510;51.072;6.678;2024-03-08T14:25:23;19.80;;;9.47;;
3000;SDS011;1510;51.072;6.678;2024-03-08T14:27:50;17.73;;;10.17;;
3000;SDS011;1510;51.072;6.678;2024-03-08T14:30:19;17.73;;;9.30;;
3000;SDS011;1510;51.072;6.678;2024-03-08T14:32:59;17.37;;;9.07;;
3000;SDS011;1510;51.072;6.678;2024-03-08T14:35:26;19.37;;;9.83;;
3000;SDS011;1510;51.072;6.678;2024-03-08T14:37:54;14.20;;;8.83;;
3000;SDS011;1510;51.072;6.678;2024-03-08T14:40:23;16.93;;;8.30;;
3000;SDS011;1510;51.072;6.678;2024-03-08T14:42:51;17.27;;;9.20;;
3000;SDS011;1510;51.072;6.678;2024-03-08T14:45:18;15.87;;;8.53;;
3000;SDS011;1510;51.072;6.678;2024-03-08T14:47:45;20.83;;;9.43;;